sensor_id;sensor_type;location;lat;lon;timestamp;pressure;altitude;pressure_sealevel;temperature;humidity
12077;BME280;12420;42.676;23.262;2023-03-25T00:00:03;94235.13;;;9.62;100.00
12077;BME280;12420;42.676;23.262;2023-03-25T00:02:40;94293.72;;;10.00;100.00
12077;BME280;12420;42.676;23.262;2023-03-25T00:05:09;94303.59;;;10.09;100.00
12077;BME280;12420;42.676;23.262;2023-03-25T00:07:38;94282.00;;;9.94;100.00
12077;BME280;12420;42.676;23.262;2023-03-25T00:10:06;94315.72;;;10.19;100.00
12077;BME280;12420;42.676;23.262;2023-03-25T00:12:33;94286.38;;;10.03;100.00
12077;BME280;12420;42.676;23.262;2023-03-25T00:15:00;94270.63;;;9.97;100.00
12077;BME280;12420;42.676;23.262;2023-03-25T00:17:27;94279.97;;;9.94;100.00
12077;BME280;12420;42.676;23.262;2023-03-25T00:19:55;94272.75;;;9.91;100.00
12077;BME280;12420;42.676;23.262;2023-03-25T00:22:22;94300.06;;;10.08;100.00
12077;BME280;12420;42.676;23.262;2023-03-25T00:24:50;94291.03;;;10.08;100.00
12077;BME280;12420;42.676;23.262;2023-03-25T00:27:17;94243.28;;;9.67;100.00
12077;BME280;12420;42.676;23.262;2023-03-25T00:29:44;94285.06;;;10.04;100.00
12077;BME280;12420;42.676;23.262;2023-03-25T00:32:12;94283.06;;;10.04;100.00
12077;BME280;12420;42.676;23.262;2023-03-25T00:34:39;94279.88;;;10.00;100.00
12077;BME280;12420;42.676;23.262;2023-03-25T00:37:11;94258.59;;;9.82;100.00
12077;BME280;12420;42.676;23.262;2023-03-25T00:39:42;94278.38;;;9.99;100.00
12077;BME280;12420;42.676;23.262;2023-03-25T00:42:14;94237.97;;;9.56;100.00
12077;BME280;12420;42.676;23.262;2023-03-25T00:44:41;94284.22;;;9.95;100.00
12077;BME280;12420;42.676;23.262;2023-03-25T00:47:08;94278.94;;;9.97;100.00
12077;BME280;12420;42.676;23.262;2023-03-25T00:49:36;94274.66;;;9.96;100.00
12077;BME280;12420;42.676;23.262;2023-03-25T00:52:03;94277.84;;;9.87;100.00
12077;BME280;12420;42.676;23.262;2023-03-25T00:54:30;94254.75;;;9.58;100.00
12077;BME280;12420;42.676;23.262;2023-03-25T00:56:58;94245.28;;;9.53;100.00
12077;BME280;12420;42.676;23.262;2023-03-25T00:59:27;94267.84;;;9.71;100.00
12077;BME280;12420;42.676;23.262;2023-03-25T01:01:54;94252.66;;;9.64;100.00
12077;BME280;12420;42.676;23.262;2023-03-25T01:04:22;94234.97;;;9.41;100.00
12077;BME280;12420;42.676;23.262;2023-03-25T01:06:49;94257.34;;;9.69;100.00
12077;BME280;12420;42.676;23.262;2023-03-25T01:09:17;94255.81;;;9.68;100.00
12077;BME280;12420;42.676;23.262;2023-03-25T01:11:45;94197.25;;;9.30;100.00
12077;BME280;12420;42.676;23.262;2023-03-25T01:14:14;94255.31;;;9.83;100.00
12077;BME280;12420;42.676;23.262;2023-03-25T01:16:43;94272.22;;;9.80;100.00
12077;BME280;12420;42.676;23.262;2023-03-25T01:19:11;94239.97;;;9.69;100.00
12077;BME280;12420;42.676;23.262;2023-03-25T01:21:39;94227.00;;;9.50;100.00
12077;BME280;12420;42.676;23.262;2023-03-25T01:24:07;94238.50;;;9.68;100.00
12077;BME280;12420;42.676;23.262;2023-03-25T01:26:36;94227.66;;;9.56;100.00
12077;BME280;12420;42.676;23.262;2023-03-25T01:29:05;94230.84;;;9.61;100.00
12077;BME280;12420;42.676;23.262;2023-03-25T01:31:32;94226.28;;;9.63;100.00
12077;BME280;12420;42.676;23.262;2023-03-25T01:34:00;94225.59;;;9.44;100.00
12077;BME280;12420;42.676;23.262;2023-03-25T01:36:28;94211.28;;;9.45;100.00
12077;BME280;12420;42.676;23.262;2023-03-25T01:38:56;94217.75;;;9.48;100.00
12077;BME280;12420;42.676;23.262;2023-03-25T01:41:24;94192.84;;;9.08;100.00
12077;BME280;12420;42.676;23.262;2023-03-25T01:44:02;94214.38;;;9.42;100.00
12077;BME280;12420;42.676;23.262;2023-03-25T01:46:30;94181.47;;;8.98;100.00
12077;BME280;12420;42.676;23.262;2023-03-25T01:48:58;94206.16;;;9.23;100.00
12077;BME280;12420;42.676;23.262;2023-03-25T01:51:30;94227.50;;;9.22;100.00
12077;BME280;12420;42.676;23.262;2023-03-25T01:53:58;94186.34;;;8.92;100.00
12077;BME280;12420;42.676;23.262;2023-03-25T01:56:27;94211.16;;;9.24;100.00
12077;BME280;12420;42.676;23.262;2023-03-25T01:58:57;94191.50;;;9.15;100.00
12077;BME280;12420;42.676;23.262;2023-03-25T02:01:26;94185.56;;;9.24;100.00
12077;BME280;12420;42.676;23.262;2023-03-25T02:03:54;94207.88;;;9.39;100.00
12077;BME280;12420;42.676;23.262;2023-03-25T02:06:32;94211.91;;;9.38;100.00
12077;BME280;12420;42.676;23.262;2023-03-25T02:09:02;94205.97;;;9.34;100.00
12077;BME280;12420;42.676;23.262;2023-03-25T02:11:31;94209.34;;;9.13;100.00
12077;BME280;12420;42.676;23.262;2023-03-25T02:13:59;94208.50;;;9.19;100.00
12077;BME280;12420;42.676;23.262;2023-03-25T02:16:34;94207.66;;;9.24;100.00
12077;BME280;12420;42.676;23.262;2023-03-25T02:19:19;94206.59;;;9.27;100.00
12077;BME280;12420;42.676;23.262;2023-03-25T02:22:33;94198.06;;;9.11;100.00
12077;BME280;12420;42.676;23.262;2023-03-25T02:25:43;94205.91;;;9.07;100.00
12077;BME280;12420;42.676;23.262;2023-03-25T02:28:21;94146.81;;;8.71;100.00
12077;BME280;12420;42.676;23.262;2023-03-25T02:31:34;94182.75;;;8.97;100.00
12077;BME280;12420;42.676;23.262;2023-03-25T02:34:19;94194.88;;;9.07;100.00
12077;BME280;12420;42.676;23.262;2023-03-25T02:40:01;94138.91;;;8.61;100.00
12077;BME280;12420;42.676;23.262;2023-03-25T02:42:33;94172.97;;;8.64;100.00
12077;BME280;12420;42.676;23.262;2023-03-25T02:45:08;94190.34;;;8.78;100.00
12077;BME280;12420;42.676;23.262;2023-03-25T02:47:41;94207.63;;;8.78;100.00
12077;BME280;12420;42.676;23.262;2023-03-25T02:50:13;94183.31;;;8.77;100.00
12077;BME280;12420;42.676;23.262;2023-03-25T02:52:44;94186.31;;;8.79;100.00
12077;BME280;12420;42.676;23.262;2023-03-25T02:55:16;94186.63;;;8.75;100.00
12077;BME280;12420;42.676;23.262;2023-03-25T02:57:45;94186.09;;;8.77;100.00
12077;BME280;12420;42.676;23.262;2023-03-25T03:00:16;94179.31;;;8.78;100.00
12077;BME280;12420;42.676;23.262;2023-03-25T03:02:51;94160.03;;;8.59;100.00
12077;BME280;12420;42.676;23.262;2023-03-25T03:05:25;94176.31;;;8.76;100.00
12077;BME280;12420;42.676;23.262;2023-03-25T03:08:01;94175.13;;;8.71;100.00
12077;BME280;12420;42.676;23.262;2023-03-25T03:10:38;94163.88;;;8.69;100.00
12077;BME280;12420;42.676;23.262;2023-03-25T03:13:15;94197.22;;;8.71;100.00
12077;BME280;12420;42.676;23.262;2023-03-25T03:15:52;94179.00;;;8.62;100.00
12077;BME280;12420;42.676;23.262;2023-03-25T03:18:28;94239.50;;;8.60;100.00
12077;BME280;12420;42.676;23.262;2023-03-25T03:21:08;94169.78;;;8.60;100.00
12077;BME280;12420;42.676;23.262;2023-03-25T03:23:43;94158.19;;;8.48;100.00
12077;BME280;12420;42.676;23.262;2023-03-25T03:26:24;94179.00;;;8.62;100.00
12077;BME280;12420;42.676;23.262;2023-03-25T03:28:59;94177.34;;;8.73;100.00
12077;BME280;12420;42.676;23.262;2023-03-25T03:31:33;94191.97;;;8.67;100.00
12077;BME280;12420;42.676;23.262;2023-03-25T03:34:07;94171.09;;;8.72;100.00
12077;BME280;12420;42.676;23.262;2023-03-25T03:36:38;94179.69;;;8.68;100.00
12077;BME280;12420;42.676;23.262;2023-03-25T03:39:10;94176.66;;;8.53;100.00
12077;BME280;12420;42.676;23.262;2023-03-25T03:41:44;94200.66;;;8.58;100.00
12077;BME280;12420;42.676;23.262;2023-03-25T03:44:17;94185.59;;;8.59;100.00
12077;BME280;12420;42.676;23.262;2023-03-25T03:46:48;94191.41;;;8.56;100.00
12077;BME280;12420;42.676;23.262;2023-03-25T03:49:23;94186.31;;;8.60;100.00
12077;BME280;12420;42.676;23.262;2023-03-25T03:51:56;94182.84;;;8.59;100.00
12077;BME280;12420;42.676;23.262;2023-03-25T03:54:28;94152.53;;;8.40;100.00
12077;BME280;12420;42.676;23.262;2023-03-25T03:57:01;94178.81;;;8.60;100.00
12077;BME280;12420;42.676;23.262;2023-03-25T03:59:37;94183.94;;;8.69;100.00
12077;BME280;12420;42.676;23.262;2023-03-25T04:02:10;94184.38;;;8.74;100.00
12077;BME280;12420;42.676;23.262;2023-03-25T04:04:40;94161.16;;;8.50;100.00
12077;BME280;12420;42.676;23.262;2023-03-25T04:07:11;94189.91;;;8.74;100.00
12077;BME280;12420;42.676;23.262;2023-03-25T04:09:47;94180.34;;;8.75;100.00
12077;BME280;12420;42.676;23.262;2023-03-25T04:12:24;94180.78;;;8.79;100.00
12077;BME280;12420;42.676;23.262;2023-03-25T04:14:54;94186.53;;;8.81;100.00
12077;BME280;12420;42.676;23.262;2023-03-25T04:17:21;94139.53;;;8.54;100.00
12077;BME280;12420;42.676;23.262;2023-03-25T04:19:48;94130.38;;;8.46;100.00
12077;BME280;12420;42.676;23.262;2023-03-25T04:22:19;94170.06;;;8.75;100.00
12077;BME280;12420;42.676;23.262;2023-03-25T04:24:46;94154.88;;;8.68;100.00
12077;BME280;12420;42.676;23.262;2023-03-25T04:27:14;94184.06;;;8.77;100.00
12077;BME280;12420;42.676;23.262;2023-03-25T04:29:43;94178.03;;;8.79;100.00
12077;BME280;12420;42.676;23.262;2023-03-25T04:32:12;94192.41;;;8.90;100.00
12077;BME280;12420;42.676;23.262;2023-03-25T04:34:39;94178.88;;;8.87;100.00
12077;BME280;12420;42.676;23.262;2023-03-25T04:37:06;94157.06;;;8.70;100.00
12077;BME280;12420;42.676;23.262;2023-03-25T04:39:33;94187.38;;;8.76;100.00
12077;BME280;12420;42.676;23.262;2023-03-25T04:42:00;94175.72;;;8.83;100.00
12077;BME280;12420;42.676;23.262;2023-03-25T04:44:27;94174.66;;;8.86;100.00
12077;BME280;12420;42.676;23.262;2023-03-25T04:47:00;94172.13;;;8.88;100.00
12077;BME280;12420;42.676;23.262;2023-03-25T04:49:28;94202.63;;;9.09;100.00
12077;BME280;12420;42.676;23.262;2023-03-25T04:51:54;94196.38;;;9.08;100.00
12077;BME280;12420;42.676;23.262;2023-03-25T04:54:26;94199.78;;;9.15;100.00
12077;BME280;12420;42.676;23.262;2023-03-25T04:56:53;94182.03;;;9.10;100.00
12077;BME280;12420;42.676;23.262;2023-03-25T04:59:20;94131.94;;;8.60;100.00
12077;BME280;12420;42.676;23.262;2023-03-25T05:01:49;94179.94;;;9.16;100.00
12077;BME280;12420;42.676;23.262;2023-03-25T05:04:18;94149.44;;;9.22;100.00
12077;BME280;12420;42.676;23.262;2023-03-25T05:06:47;94195.03;;;9.55;100.00
12077;BME280;12420;42.676;23.262;2023-03-25T05:09:16;94207.25;;;9.73;100.00
12077;BME280;12420;42.676;23.262;2023-03-25T05:11:44;94206.19;;;9.89;100.00
12077;BME280;12420;42.676;23.262;2023-03-25T05:14:13;94221.81;;;10.00;100.00
12077;BME280;12420;42.676;23.262;2023-03-25T05:16:41;94210.22;;;10.02;100.00
12077;BME280;12420;42.676;23.262;2023-03-25T05:19:09;94169.84;;;9.85;100.00
12077;BME280;12420;42.676;23.262;2023-03-25T05:21:39;94216.34;;;10.34;100.00
12077;BME280;12420;42.676;23.262;2023-03-25T05:24:07;94212.69;;;10.53;100.00
12077;BME280;12420;42.676;23.262;2023-03-25T05:26:35;94164.44;;;10.27;100.00
12077;BME280;12420;42.676;23.262;2023-03-25T05:29:02;94162.72;;;10.37;99.96
12077;BME280;12420;42.676;23.262;2023-03-25T05:31:30;94207.00;;;10.72;97.65
12077;BME280;12420;42.676;23.262;2023-03-25T05:33:57;94201.75;;;10.81;97.45
12077;BME280;12420;42.676;23.262;2023-03-25T05:36:24;94211.66;;;10.98;98.32
12077;BME280;12420;42.676;23.262;2023-03-25T05:38:52;94208.16;;;11.18;97.38
12077;BME280;12420;42.676;23.262;2023-03-25T05:41:20;94204.91;;;11.27;97.19
12077;BME280;12420;42.676;23.262;2023-03-25T05:43:56;94222.44;;;11.51;97.25
12077;BME280;12420;42.676;23.262;2023-03-25T05:46:25;94215.13;;;11.61;93.64
12077;BME280;12420;42.676;23.262;2023-03-25T05:48:52;94216.47;;;11.68;92.45
12077;BME280;12420;42.676;23.262;2023-03-25T05:51:20;94213.59;;;11.81;91.13
12077;BME280;12420;42.676;23.262;2023-03-25T05:53:47;94212.38;;;11.90;91.24
12077;BME280;12420;42.676;23.262;2023-03-25T05:56:17;94192.56;;;11.86;89.39
12077;BME280;12420;42.676;23.262;2023-03-25T05:58:44;94207.31;;;12.09;88.68
12077;BME280;12420;42.676;23.262;2023-03-25T06:01:12;94215.53;;;12.30;86.44
12077;BME280;12420;42.676;23.262;2023-03-25T06:03:40;94225.19;;;12.37;85.00
12077;BME280;12420;42.676;23.262;2023-03-25T06:06:07;94199.31;;;12.42;82.68
12077;BME280;12420;42.676;23.262;2023-03-25T06:08:38;94213.06;;;12.63;79.71
12077;BME280;12420;42.676;23.262;2023-03-25T06:11:06;94188.56;;;12.46;80.25
12077;BME280;12420;42.676;23.262;2023-03-25T06:13:35;94192.31;;;12.56;78.36
12077;BME280;12420;42.676;23.262;2023-03-25T06:16:04;94213.63;;;12.77;80.11
12077;BME280;12420;42.676;23.262;2023-03-25T06:18:34;94165.50;;;12.67;76.48
12077;BME280;12420;42.676;23.262;2023-03-25T06:21:01;94219.09;;;13.13;75.80
12077;BME280;12420;42.676;23.262;2023-03-25T06:23:27;94158.50;;;12.96;74.58
12077;BME280;12420;42.676;23.262;2023-03-25T06:25:54;94205.78;;;13.35;72.07
12077;BME280;12420;42.676;23.262;2023-03-25T06:28:23;94210.22;;;13.61;70.98
12077;BME280;12420;42.676;23.262;2023-03-25T06:30:51;94217.44;;;13.72;71.57
12077;BME280;12420;42.676;23.262;2023-03-25T06:33:18;94220.59;;;13.76;72.96
12077;BME280;12420;42.676;23.262;2023-03-25T06:35:46;94211.13;;;13.79;72.66
12077;BME280;12420;42.676;23.262;2023-03-25T06:38:18;94193.91;;;13.57;73.11
12077;BME280;12420;42.676;23.262;2023-03-25T06:40:45;94224.13;;;13.61;73.07
12077;BME280;12420;42.676;23.262;2023-03-25T06:43:13;94195.03;;;13.39;73.09
12077;BME280;12420;42.676;23.262;2023-03-25T06:45:40;94220.97;;;13.72;74.46
12077;BME280;12420;42.676;23.262;2023-03-25T06:48:08;94222.44;;;13.73;74.01
12077;BME280;12420;42.676;23.262;2023-03-25T06:50:35;94197.09;;;13.54;75.16
12077;BME280;12420;42.676;23.262;2023-03-25T06:53:02;94230.41;;;13.84;73.25
12077;BME280;12420;42.676;23.262;2023-03-25T06:55:29;94193.91;;;13.65;74.71
12077;BME280;12420;42.676;23.262;2023-03-25T06:57:55;94231.88;;;13.93;73.25
12077;BME280;12420;42.676;23.262;2023-03-25T07:00:22;94239.09;;;13.96;75.77
12077;BME280;12420;42.676;23.262;2023-03-25T07:02:51;94238.75;;;14.00;75.37
12077;BME280;12420;42.676;23.262;2023-03-25T07:05:19;94266.16;;;14.19;72.69
12077;BME280;12420;42.676;23.262;2023-03-25T07:07:46;94237.13;;;14.37;72.20
12077;BME280;12420;42.676;23.262;2023-03-25T07:10:13;94204.38;;;14.13;73.25
12077;BME280;12420;42.676;23.262;2023-03-25T07:12:40;94234.91;;;14.43;73.61
12077;BME280;12420;42.676;23.262;2023-03-25T07:15:07;94231.91;;;14.49;71.57
12077;BME280;12420;42.676;23.262;2023-03-25T07:17:34;94219.31;;;14.48;70.67
12077;BME280;12420;42.676;23.262;2023-03-25T07:20:02;94226.25;;;14.72;71.47
12077;BME280;12420;42.676;23.262;2023-03-25T07:22:30;94190.31;;;14.59;70.05
12077;BME280;12420;42.676;23.262;2023-03-25T07:24:57;94230.03;;;15.00;69.02
12077;BME280;12420;42.676;23.262;2023-03-25T07:27:24;94169.50;;;14.60;69.55
12077;BME280;12420;42.676;23.262;2023-03-25T07:29:54;94231.53;;;15.26;69.94
12077;BME280;12420;42.676;23.262;2023-03-25T07:32:23;94250.03;;;15.38;68.89
12077;BME280;12420;42.676;23.262;2023-03-25T07:34:50;94223.91;;;15.51;67.09
12077;BME280;12420;42.676;23.262;2023-03-25T07:37:16;94243.66;;;15.46;67.06
12077;BME280;12420;42.676;23.262;2023-03-25T07:39:44;94219.00;;;15.59;66.47
12077;BME280;12420;42.676;23.262;2023-03-25T07:42:11;94225.09;;;15.91;64.83
12077;BME280;12420;42.676;23.262;2023-03-25T07:44:38;94222.22;;;15.98;65.37
12077;BME280;12420;42.676;23.262;2023-03-25T07:47:05;94179.59;;;15.80;64.65
12077;BME280;12420;42.676;23.262;2023-03-25T07:49:31;94203.50;;;16.09;65.19
12077;BME280;12420;42.676;23.262;2023-03-25T07:51:58;94197.03;;;16.06;64.66
12077;BME280;12420;42.676;23.262;2023-03-25T07:54:25;94180.00;;;15.94;63.76
12077;BME280;12420;42.676;23.262;2023-03-25T07:56:54;94179.94;;;16.19;66.22
12077;BME280;12420;42.676;23.262;2023-03-25T07:59:21;94207.59;;;16.60;64.24
12077;BME280;12420;42.676;23.262;2023-03-25T08:01:48;94163.38;;;16.48;62.82
12077;BME280;12420;42.676;23.262;2023-03-25T08:04:17;94197.31;;;16.80;61.84
12077;BME280;12420;42.676;23.262;2023-03-25T08:06:44;94187.47;;;16.88;61.39
12077;BME280;12420;42.676;23.262;2023-03-25T08:09:10;94180.94;;;17.03;63.46
12077;BME280;12420;42.676;23.262;2023-03-25T08:11:37;94173.66;;;17.18;62.45
12077;BME280;12420;42.676;23.262;2023-03-25T08:14:05;94177.09;;;17.35;61.53
12077;BME280;12420;42.676;23.262;2023-03-25T08:16:32;94182.28;;;17.49;60.73
12077;BME280;12420;42.676;23.262;2023-03-25T08:18:59;94173.06;;;17.66;60.04
12077;BME280;12420;42.676;23.262;2023-03-25T08:21:25;94172.84;;;17.81;60.12
12077;BME280;12420;42.676;23.262;2023-03-25T08:23:53;94170.19;;;17.93;59.88
12077;BME280;12420;42.676;23.262;2023-03-25T08:26:23;94175.03;;;17.83;60.08
12077;BME280;12420;42.676;23.262;2023-03-25T08:28:51;94179.69;;;17.61;58.08
12077;BME280;12420;42.676;23.262;2023-03-25T08:31:20;94173.56;;;17.82;58.44
12077;BME280;12420;42.676;23.262;2023-03-25T08:33:47;94141.25;;;17.61;58.93
12077;BME280;12420;42.676;23.262;2023-03-25T08:36:13;94152.31;;;17.69;59.19
12077;BME280;12420;42.676;23.262;2023-03-25T08:38:44;94159.72;;;17.93;59.92
12077;BME280;12420;42.676;23.262;2023-03-25T08:41:11;94187.84;;;17.86;60.57
12077;BME280;12420;42.676;23.262;2023-03-25T08:43:37;94142.03;;;17.91;60.08
12077;BME280;12420;42.676;23.262;2023-03-25T08:46:04;94153.84;;;18.09;58.52
12077;BME280;12420;42.676;23.262;2023-03-25T08:48:32;94158.28;;;18.12;57.75
12077;BME280;12420;42.676;23.262;2023-03-25T08:50:59;94158.25;;;18.21;58.31
12077;BME280;12420;42.676;23.262;2023-03-25T08:53:26;94131.44;;;17.99;59.85
12077;BME280;12420;42.676;23.262;2023-03-25T08:55:54;94154.00;;;17.91;58.87
12077;BME280;12420;42.676;23.262;2023-03-25T08:58:22;94159.72;;;17.93;58.04
12077;BME280;12420;42.676;23.262;2023-03-25T09:00:52;94152.47;;;17.81;58.05
12077;BME280;12420;42.676;23.262;2023-03-25T09:03:20;94132.75;;;17.78;59.60
12077;BME280;12420;42.676;23.262;2023-03-25T09:05:48;94145.44;;;17.99;57.86
12077;BME280;12420;42.676;23.262;2023-03-25T09:08:15;94145.88;;;18.15;57.00
12077;BME280;12420;42.676;23.262;2023-03-25T09:10:42;94145.59;;;18.20;56.72
12077;BME280;12420;42.676;23.262;2023-03-25T09:13:09;94140.72;;;18.31;55.59
12077;BME280;12420;42.676;23.262;2023-03-25T09:15:35;94131.84;;;18.44;58.29
12077;BME280;12420;42.676;23.262;2023-03-25T09:18:02;94120.06;;;18.36;57.02
12077;BME280;12420;42.676;23.262;2023-03-25T09:20:30;94097.50;;;18.34;56.96
12077;BME280;12420;42.676;23.262;2023-03-25T09:22:58;94134.47;;;18.61;57.08
12077;BME280;12420;42.676;23.262;2023-03-25T09:25:24;94140.66;;;18.70;56.73
12077;BME280;12420;42.676;23.262;2023-03-25T09:27:51;94125.91;;;18.59;53.33
12077;BME280;12420;42.676;23.262;2023-03-25T09:30:18;94120.63;;;18.63;54.14
12077;BME280;12420;42.676;23.262;2023-03-25T09:32:45;94116.78;;;18.59;53.25
12077;BME280;12420;42.676;23.262;2023-03-25T09:35:11;94124.31;;;18.56;54.94
12077;BME280;12420;42.676;23.262;2023-03-25T09:37:38;94107.66;;;18.49;54.16
12077;BME280;12420;42.676;23.262;2023-03-25T09:40:08;94097.34;;;18.51;54.93
12077;BME280;12420;42.676;23.262;2023-03-25T09:42:45;94081.69;;;18.58;53.78
12077;BME280;12420;42.676;23.262;2023-03-25T09:45:27;94117.91;;;18.85;53.93
12077;BME280;12420;42.676;23.262;2023-03-25T09:48:00;94116.13;;;18.90;52.52
12077;BME280;12420;42.676;23.262;2023-03-25T09:50:30;94117.16;;;18.94;52.85
12077;BME280;12420;42.676;23.262;2023-03-25T09:53:01;94110.38;;;18.87;52.05
12077;BME280;12420;42.676;23.262;2023-03-25T09:55:35;94102.13;;;18.90;51.36
12077;BME280;12420;42.676;23.262;2023-03-25T09:58:23;94082.75;;;19.03;51.51
12077;BME280;12420;42.676;23.262;2023-03-25T10:00:59;94106.81;;;19.28;49.92
12077;BME280;12420;42.676;23.262;2023-03-25T10:03:33;94130.09;;;19.40;47.89
12077;BME280;12420;42.676;23.262;2023-03-25T10:06:17;94106.53;;;19.55;49.29
12077;BME280;12420;42.676;23.262;2023-03-25T10:09:12;94099.34;;;19.73;46.49
12077;BME280;12420;42.676;23.262;2023-03-25T10:11:46;94082.84;;;19.68;45.78
12077;BME280;12420;42.676;23.262;2023-03-25T10:14:19;94091.31;;;20.01;46.26
12077;BME280;12420;42.676;23.262;2023-03-25T10:16:55;94040.75;;;20.01;45.15
12077;BME280;12420;42.676;23.262;2023-03-25T10:19:38;94079.63;;;20.50;45.25
12077;BME280;12420;42.676;23.262;2023-03-25T10:22:13;94076.09;;;20.49;44.56
12077;BME280;12420;42.676;23.262;2023-03-25T10:24:47;94052.91;;;20.27;44.92
12077;BME280;12420;42.676;23.262;2023-03-25T10:27:18;94036.22;;;19.96;45.11
12077;BME280;12420;42.676;23.262;2023-03-25T10:29:51;94023.03;;;19.99;45.34
12077;BME280;12420;42.676;23.262;2023-03-25T10:32:27;94056.78;;;20.10;46.32
12077;BME280;12420;42.676;23.262;2023-03-25T10:34:58;94060.97;;;20.21;46.96
12077;BME280;12420;42.676;23.262;2023-03-25T10:37:31;94009.03;;;19.77;46.73
12077;BME280;12420;42.676;23.262;2023-03-25T10:40:12;94010.88;;;19.84;47.30
12077;BME280;12420;42.676;23.262;2023-03-25T10:42:44;94058.97;;;20.12;46.90
12077;BME280;12420;42.676;23.262;2023-03-25T10:45:14;94046.28;;;20.11;47.62
12077;BME280;12420;42.676;23.262;2023-03-25T10:47:43;94044.81;;;20.10;48.49
12077;BME280;12420;42.676;23.262;2023-03-25T10:50:13;94026.88;;;19.82;48.14
12077;BME280;12420;42.676;23.262;2023-03-25T10:52:41;94030.66;;;19.86;49.10
12077;BME280;12420;42.676;23.262;2023-03-25T10:55:22;94025.78;;;19.87;49.03
12077;BME280;12420;42.676;23.262;2023-03-25T10:57:52;94023.03;;;19.99;49.39
12077;BME280;12420;42.676;23.262;2023-03-25T11:00:20;94018.41;;;20.03;48.54
12077;BME280;12420;42.676;23.262;2023-03-25T11:02:50;93987.47;;;19.91;48.53
12077;BME280;12420;42.676;23.262;2023-03-25T11:05:21;94012.13;;;20.26;48.75
12077;BME280;12420;42.676;23.262;2023-03-25T11:07:51;93999.69;;;20.41;49.09
12077;BME280;12420;42.676;23.262;2023-03-25T11:10:22;94001.34;;;20.56;47.85
12077;BME280;12420;42.676;23.262;2023-03-25T11:12:51;93994.56;;;20.49;45.99
12077;BME280;12420;42.676;23.262;2023-03-25T11:15:21;93997.13;;;20.33;46.63
12077;BME280;12420;42.676;23.262;2023-03-25T11:17:55;93997.75;;;20.44;44.83
12077;BME280;12420;42.676;23.262;2023-03-25T11:20:29;93961.78;;;20.19;45.25
12077;BME280;12420;42.676;23.262;2023-03-25T11:23:03;94003.97;;;20.30;44.69
12077;BME280;12420;42.676;23.262;2023-03-25T11:25:35;94005.56;;;20.45;43.42
12077;BME280;12420;42.676;23.262;2023-03-25T11:28:11;94004.81;;;20.45;42.57
12077;BME280;12420;42.676;23.262;2023-03-25T11:31:07;93982.34;;;20.45;42.58
12077;BME280;12420;42.676;23.262;2023-03-25T11:33:35;93976.16;;;20.70;43.13
12077;BME280;12420;42.676;23.262;2023-03-25T11:36:27;93974.66;;;20.80;41.34
12077;BME280;12420;42.676;23.262;2023-03-25T11:38:59;93966.63;;;20.87;42.04
12077;BME280;12420;42.676;23.262;2023-03-25T11:41:34;93957.41;;;20.98;41.64
12077;BME280;12420;42.676;23.262;2023-03-25T11:44:04;93967.56;;;21.03;40.33
12077;BME280;12420;42.676;23.262;2023-03-25T11:46:33;93960.31;;;21.23;39.90
12077;BME280;12420;42.676;23.262;2023-03-25T11:49:17;93957.53;;;21.12;40.01
12077;BME280;12420;42.676;23.262;2023-03-25T11:51:45;93963.03;;;21.10;41.22
12077;BME280;12420;42.676;23.262;2023-03-25T11:54:14;93957.53;;;21.00;40.65
12077;BME280;12420;42.676;23.262;2023-03-25T11:56:43;93951.53;;;20.94;41.23
12077;BME280;12420;42.676;23.262;2023-03-25T11:59:22;93952.81;;;20.79;40.26
12077;BME280;12420;42.676;23.262;2023-03-25T12:01:51;93957.81;;;20.80;41.49
12077;BME280;12420;42.676;23.262;2023-03-25T12:04:25;93952.56;;;20.87;41.70
12077;BME280;12420;42.676;23.262;2023-03-25T12:06:54;93908.41;;;20.42;40.79
12077;BME280;12420;42.676;23.262;2023-03-25T12:09:23;93937.75;;;20.63;41.45
12077;BME280;12420;42.676;23.262;2023-03-25T12:12:01;93940.09;;;20.54;41.60
12077;BME280;12420;42.676;23.262;2023-03-25T12:14:46;93922.00;;;20.57;41.55
12077;BME280;12420;42.676;23.262;2023-03-25T12:17:22;93918.78;;;20.39;40.96
12077;BME280;12420;42.676;23.262;2023-03-25T12:20:01;93922.31;;;20.16;41.58
12077;BME280;12420;42.676;23.262;2023-03-25T12:22:43;93934.78;;;20.25;42.33
12077;BME280;12420;42.676;23.262;2023-03-25T12:25:19;93904.69;;;20.04;41.75
12077;BME280;12420;42.676;23.262;2023-03-25T12:30:57;93934.66;;;20.23;41.82
12077;BME280;12420;42.676;23.262;2023-03-25T12:33:35;93945.91;;;20.35;41.71
12077;BME280;12420;42.676;23.262;2023-03-25T12:36:16;93926.84;;;20.22;41.68
12077;BME280;12420;42.676;23.262;2023-03-25T12:38:55;93931.63;;;20.31;42.14
12077;BME280;12420;42.676;23.262;2023-03-25T12:41:28;93945.91;;;20.47;41.95
12077;BME280;12420;42.676;23.262;2023-03-25T12:44:01;93933.69;;;20.42;41.66
12077;BME280;12420;42.676;23.262;2023-03-25T12:46:41;93876.97;;;19.99;41.67
12077;BME280;12420;42.676;23.262;2023-03-25T12:49:21;93904.00;;;20.15;41.32
12077;BME280;12420;42.676;23.262;2023-03-25T12:51:55;93932.81;;;20.16;41.21
12077;BME280;12420;42.676;23.262;2023-03-25T12:54:37;93922.19;;;20.03;41.50
12077;BME280;12420;42.676;23.262;2023-03-25T12:57:19;93931.47;;;20.17;41.58
12077;BME280;12420;42.676;23.262;2023-03-25T13:00:02;93915.06;;;19.57;41.60
12077;BME280;12420;42.676;23.262;2023-03-25T13:05:42;93950.72;;;19.66;42.27
12077;BME280;12420;42.676;23.262;2023-03-25T13:08:15;93931.56;;;19.62;43.00
12077;BME280;12420;42.676;23.262;2023-03-25T13:10:47;93924.38;;;19.38;43.23
12077;BME280;12420;42.676;23.262;2023-03-25T13:13:18;93936.13;;;19.46;44.35
12077;BME280;12420;42.676;23.262;2023-03-25T13:15:53;93937.81;;;19.39;44.12
12077;BME280;12420;42.676;23.262;2023-03-25T13:18:27;93939.78;;;19.48;44.62